createdAt,value
2019-02-10T00:04:16.847Z,64.30
2019-02-10T00:09:08.278Z,76.50
2019-02-10T00:13:59.666Z,77.70
2019-02-10T00:18:51.133Z,78.40
2019-02-10T00:23:42.528Z,75.30
2019-02-10T00:28:33.943Z,75.80
2019-02-10T00:33:25.257Z,74.70
2019-02-10T00:38:16.678Z,75.00
2019-02-10T00:43:08.055Z,77.30
2019-02-10T00:47:59.509Z,75.20
2019-02-10T00:52:50.898Z,74.20
2019-02-10T00:57:42.303Z,75.80
2019-02-10T01:02:33.691Z,73.80
2019-02-10T01:07:27.347Z,67.60
2019-02-10T01:12:18.776Z,66.70
2019-02-10T01:17:12.451Z,68.00
2019-02-10T01:22:03.946Z,68.50
2019-02-10T01:26:55.291Z,67.20
2019-02-10T01:31:46.709Z,67.70
2019-02-10T01:36:38.126Z,66.20
2019-02-10T01:41:29.449Z,63.10
2019-02-10T01:46:20.793Z,60.40
2019-02-10T01:51:14.882Z,60.40
2019-02-10T01:56:06.340Z,61.20
2019-02-10T02:00:57.694Z,60.30
2019-02-10T02:05:49.087Z,58.80
2019-02-10T02:10:40.474Z,60.00
2019-02-10T02:15:31.882Z,56.40
2019-02-10T02:20:23.287Z,56.90
2019-02-10T02:25:14.686Z,57.50
2019-02-10T02:30:06.151Z,56.90
2019-02-10T02:34:57.470Z,56.90
2019-02-10T02:39:48.851Z,56.40
2019-02-10T02:44:40.298Z,54.90
2019-02-10T02:49:31.663Z,55.00
2019-02-10T02:54:23.061Z,54.60
2019-02-10T02:59:14.491Z,53.60
2019-02-10T03:04:05.882Z,53.40
2019-02-10T03:08:59.487Z,52.20
2019-02-10T03:13:50.878Z,52.80
2019-02-10T03:18:42.471Z,52.80
2019-02-10T03:23:35.892Z,52.20
2019-02-10T03:28:32.346Z,51.60
2019-02-10T03:33:18.838Z,51.80
2019-02-10T03:38:10.175Z,50.20
2019-02-10T03:43:01.596Z,47.30
2019-02-10T03:47:55.225Z,46.50
2019-02-10T03:52:46.698Z,47.10
2019-02-10T03:57:38.075Z,47.00
2019-02-10T04:02:29.444Z,45.40
2019-02-10T04:07:20.873Z,46.00
2019-02-10T04:12:12.228Z,46.30
2019-02-10T04:17:03.626Z,44.40
2019-02-10T04:26:48.680Z,44.60
2019-02-10T04:31:40.066Z,44.50
2019-02-10T04:36:31.453Z,45.30
2019-02-10T04:41:22.843Z,44.60
2019-02-10T04:46:14.264Z,44.60
2019-02-10T04:51:05.605Z,44.00
2019-02-10T04:55:57.039Z,43.80
2019-02-10T05:00:48.355Z,45.10
2019-02-10T05:05:39.728Z,43.80
2019-02-10T05:10:31.145Z,43.50
2019-02-10T05:15:22.614Z,44.20
2019-02-10T05:20:16.174Z,44.70
2019-02-10T05:25:07.695Z,44.60
2019-02-10T05:29:59.092Z,44.20
2019-02-10T05:34:50.472Z,42.80
2019-02-10T05:39:41.876Z,41.50
2019-02-10T05:44:33.253Z,41.50
2019-02-10T05:49:26.856Z,41.80
2019-02-10T05:54:18.288Z,41.30
2019-02-10T05:59:09.679Z,42.30
2019-02-10T06:04:01.071Z,42.80
2019-02-10T06:08:52.437Z,43.70
2019-02-10T06:13:43.837Z,43.60
2019-02-10T06:18:35.242Z,43.80
2019-02-10T06:23:26.572Z,43.80
2019-02-10T06:28:18.086Z,44.50
2019-02-10T06:33:09.405Z,44.10
2019-02-10T06:38:00.859Z,44.10
2019-02-10T06:47:48.145Z,44.20
2019-02-10T06:52:41.778Z,44.20
2019-02-10T06:57:35.443Z,43.90
2019-02-10T07:02:31.902Z,44.70
2019-02-10T07:07:18.266Z,43.70
2019-02-10T07:12:09.643Z,44.30
2019-02-10T07:17:01.087Z,43.80
2019-02-10T07:21:52.435Z,43.40
2019-02-10T07:26:46.066Z,43.40
2019-02-10T07:31:37.484Z,43.60
2019-02-10T07:36:29.042Z,40.70
2019-02-10T07:41:22.663Z,38.90
2019-02-10T07:46:14.054Z,38.30
2019-02-10T07:51:05.499Z,37.90
2019-02-10T07:55:56.857Z,35.70
2019-02-10T08:00:48.286Z,33.70
2019-02-10T08:05:41.860Z,33.80
2019-02-10T08:10:33.342Z,32.30
2019-02-10T08:15:26.932Z,30.90
2019-02-10T08:20:18.426Z,31.50
2019-02-10T08:25:09.764Z,29.50
2019-02-10T08:30:01.176Z,28.30
2019-02-10T08:34:52.544Z,27.30
2019-02-10T08:39:43.987Z,29.00
2019-02-10T08:44:35.389Z,28.70
2019-02-10T08:49:26.782Z,29.50
2019-02-10T08:54:20.426Z,29.40
2019-02-10T08:59:14.175Z,30.20
2019-02-10T09:04:05.598Z,30.20
2019-02-10T09:09:03.149Z,31.20
2019-02-10T09:13:48.377Z,29.60
2019-02-10T09:18:39.768Z,28.50
2019-02-10T09:23:31.119Z,29.20
2019-02-10T09:28:22.491Z,29.20
2019-02-10T09:33:13.959Z,29.20
2019-02-10T09:38:07.546Z,28.20
2019-02-10T09:42:58.989Z,27.50
2019-02-10T09:47:50.368Z,26.20
2019-02-10T09:52:41.781Z,26.30
2019-02-10T09:57:33.155Z,24.60
2019-02-10T10:02:26.793Z,24.20
2019-02-10T10:07:18.245Z,24.40
2019-02-10T10:12:09.621Z,22.60
2019-02-10T10:17:01.098Z,22.40
2019-02-10T10:21:52.440Z,21.90
2019-02-10T10:26:43.882Z,21.90
2019-02-10T10:31:35.243Z,21.30
2019-02-10T10:36:26.724Z,21.10
2019-02-10T10:41:18.043Z,20.30
2019-02-10T10:46:09.392Z,19.90
2019-02-10T10:51:00.750Z,19.80
2019-02-10T10:55:54.376Z,18.70
2019-02-10T11:00:45.833Z,17.80
2019-02-10T11:05:37.294Z,18.60
2019-02-10T11:10:28.648Z,17.90
2019-02-10T11:15:20.199Z,16.40
2019-02-10T11:20:12.120Z,15.80
2019-02-10T11:25:03.589Z,15.20
2019-02-10T11:29:57.156Z,15.60
2019-02-10T11:34:48.615Z,14.80
2019-02-10T11:39:44.514Z,14.20
2019-02-10T11:44:31.456Z,15.40
2019-02-10T11:49:25.080Z,13.80
2019-02-10T11:54:18.775Z,14.60
2019-02-10T11:59:10.260Z,14.30
2019-02-10T12:04:01.660Z,15.20
2019-02-10T12:08:53.056Z,15.30
2019-02-10T12:13:44.456Z,16.60
2019-02-10T12:18:35.860Z,17.30
2019-02-10T12:23:27.206Z,18.10
2019-02-10T12:28:18.609Z,19.00
2019-02-10T12:33:10.101Z,21.00
2019-02-10T12:38:05.902Z,22.00
2019-02-10T12:42:57.362Z,22.40
2019-02-10T12:47:48.725Z,25.10
2019-02-10T12:52:40.213Z,28.60
2019-02-10T12:57:31.606Z,34.90
2019-02-10T13:02:25.238Z,37.30
2019-02-10T13:07:16.695Z,38.80
2019-02-10T13:12:08.478Z,43.70
2019-02-10T13:16:59.477Z,46.20
2019-02-10T13:21:55.891Z,53.80
2019-02-10T13:26:42.285Z,65.60
2019-02-10T13:31:33.689Z,75.50
2019-02-10T13:36:25.065Z,73.60
2019-02-10T13:41:16.408Z,79.70
2019-02-10T13:46:07.972Z,83.40
2019-02-10T13:50:59.205Z,87.20
2019-02-10T13:55:50.688Z,91.60
2019-02-10T14:00:44.296Z,95.30
2019-02-10T14:05:35.852Z,97.40
2019-02-10T14:10:27.160Z,97.00
2019-02-10T14:15:18.512Z,97.70
2019-02-10T14:20:09.930Z,98.10
2019-02-10T14:25:03.558Z,97.40
2019-02-10T14:29:55.043Z,98.10
2019-02-10T14:34:48.580Z,96.50
2019-02-10T14:39:40.100Z,98.60
2019-02-10T14:44:31.423Z,97.30
2019-02-10T14:49:22.843Z,97.80
2019-02-10T14:54:14.171Z,98.00
2019-02-10T14:59:05.672Z,99.30
2019-02-10T15:03:56.971Z,99.90
2019-02-10T15:08:51.223Z,99.90
2019-02-10T15:13:42.743Z,99.90
2019-02-10T15:18:36.397Z,99.90
2019-02-10T15:23:27.814Z,99.90
2019-02-10T15:28:19.312Z,99.90
2019-02-10T15:33:10.586Z,99.90
2019-02-10T15:38:02.198Z,99.90
2019-02-10T15:42:53.541Z,99.90
2019-02-10T15:47:44.810Z,99.90
2019-02-10T15:52:36.245Z,99.90
2019-02-10T15:57:27.698Z,99.50
2019-02-10T16:02:18.989Z,96.70
2019-02-10T16:07:10.448Z,99.90
2019-02-10T16:12:01.789Z,99.90
2019-02-10T16:16:53.239Z,99.90
2019-02-10T16:21:44.552Z,99.90
2019-02-10T16:26:36.026Z,99.90
2019-02-10T16:31:27.328Z,99.90
2019-02-10T16:36:18.898Z,99.90
2019-02-10T16:41:10.272Z,99.90
2019-02-10T16:46:01.693Z,99.90
2019-02-10T16:50:53.000Z,97.80
2019-02-10T16:55:44.472Z,99.90
2019-02-10T17:00:35.786Z,99.90
2019-02-10T17:05:27.485Z,99.90
2019-02-10T17:10:18.498Z,99.90
2019-02-10T17:15:10.001Z,99.90
2019-02-10T17:20:01.350Z,99.90
2019-02-10T17:24:52.771Z,99.90
2019-02-10T17:34:37.681Z,99.90
2019-02-10T17:39:29.143Z,99.90
2019-02-10T17:44:20.553Z,99.90
2019-02-10T17:49:11.879Z,98.10
2019-02-10T17:54:03.519Z,97.70
2019-02-10T17:58:55.016Z,94.20
2019-02-10T18:03:46.256Z,97.00
2019-02-10T18:08:37.710Z,96.10
2019-02-10T18:13:29.084Z,95.50
2019-02-10T18:18:20.562Z,93.40
2019-02-10T18:23:11.913Z,94.20
2019-02-10T18:28:03.350Z,90.60
2019-02-10T18:32:54.806Z,88.10
2019-02-10T18:37:46.190Z,88.50
2019-02-10T18:42:37.561Z,86.70
2019-02-10T18:47:28.910Z,88.10
2019-02-10T18:52:20.326Z,87.30
2019-02-10T18:57:11.759Z,88.90
2019-02-10T19:02:03.169Z,86.40
2019-02-10T19:06:54.488Z,84.80
2019-02-10T19:11:47.935Z,83.50
2019-02-10T19:16:47.326Z,80.70
2019-02-10T19:21:28.691Z,80.50
2019-02-10T19:26:20.246Z,79.90
2019-02-10T19:31:11.519Z,77.20
2019-02-10T19:36:02.958Z,77.50
2019-02-10T19:40:54.297Z,76.20
2019-02-10T19:45:45.749Z,78.00
2019-02-10T19:50:37.129Z,78.30
2019-02-10T19:55:28.631Z,79.00
2019-02-10T20:00:19.892Z,81.50
2019-02-10T20:05:11.387Z,78.50
2019-02-10T20:10:02.701Z,78.50
2019-02-10T20:14:54.230Z,79.00
2019-02-10T20:19:45.500Z,81.10
2019-02-10T20:24:39.121Z,85.20
2019-02-10T20:29:30.549Z,86.10
2019-02-10T20:34:33.303Z,92.90
2019-02-10T20:39:24.821Z,96.20
2019-02-10T20:44:16.126Z,99.70
2019-02-10T20:49:07.793Z,99.90
2019-02-10T20:53:58.943Z,99.90
2019-02-10T20:58:52.492Z,99.90
2019-02-10T21:03:43.934Z,99.90
2019-02-10T21:08:35.397Z,99.90
2019-02-10T21:13:26.775Z,99.90
2019-02-10T21:18:18.085Z,99.90
2019-02-10T21:23:09.445Z,99.90
2019-02-10T21:28:03.098Z,99.90
2019-02-10T21:32:54.604Z,99.90
2019-02-10T21:37:48.145Z,99.90
2019-02-10T21:42:39.595Z,99.90
2019-02-10T21:47:31.232Z,99.90
2019-02-10T21:52:24.771Z,99.90
2019-02-10T21:57:16.251Z,99.90
2019-02-10T22:02:07.736Z,99.90
2019-02-10T22:06:59.006Z,99.90
2019-02-10T22:11:52.595Z,99.90
2019-02-10T22:16:44.056Z,99.90
2019-02-10T22:21:35.500Z,99.90
2019-02-10T22:26:26.846Z,99.80
2019-02-10T22:31:20.492Z,98.00
2019-02-10T22:36:16.402Z,95.40
2019-02-10T22:41:07.879Z,95.70
2019-02-10T22:45:59.220Z,90.30
2019-02-10T22:50:52.875Z,93.10
2019-02-10T22:55:44.309Z,94.30
2019-02-10T23:00:38.000Z,93.00
2019-02-10T23:05:29.422Z,93.00
2019-02-10T23:10:20.840Z,90.70
2019-02-10T23:15:12.232Z,92.30
2019-02-10T23:24:55.032Z,89.70
2019-02-10T23:29:46.376Z,88.20
2019-02-10T23:34:44.575Z,88.00
2019-02-10T23:39:38.262Z,88.00
2019-02-10T23:44:29.643Z,84.60
2019-02-10T23:49:21.553Z,89.10
2019-02-10T23:54:16.913Z,87.70
2019-02-10T23:59:08.473Z,90.10
